sensor_id;sensor_type;location;lat;lon;timestamp;P1;durP1;ratioP1;P2;durP2;ratioP2
72117;SDS011;59992;47.490;8.736;2023-05-28T00:01:47;9.90;;;5.10;;
72117;SDS011;59992;47.490;8.736;2023-05-28T00:04:38;8.40;;;4.30;;
72117;SDS011;59992;47.490;8.736;2023-05-28T00:07:28;10.60;;;4.70;;
72117;SDS011;59992;47.490;8.736;2023-05-28T00:10:18;9.60;;;5.00;;
72117;SDS011;59992;47.490;8.736;2023-05-28T00:13:08;10.80;;;5.30;;
72117;SDS011;59992;47.490;8.736;2023-05-28T00:15:59;9.90;;;5.20;;
72117;SDS011;59992;47.490;8.736;2023-05-28T00:18:49;12.40;;;5.40;;
72117;SDS011;59992;47.490;8.736;2023-05-28T00:21:39;7.90;;;5.00;;
72117;SDS011;59992;47.490;8.736;2023-05-28T00:24:29;8.80;;;5.00;;
72117;SDS011;59992;47.490;8.736;2023-05-28T00:27:19;10.10;;;5.20;;
72117;SDS011;59992;47.490;8.736;2023-05-28T00:30:10;9.90;;;5.30;;
72117;SDS011;59992;47.490;8.736;2023-05-28T00:33:00;9.10;;;4.70;;
72117;SDS011;59992;47.490;8.736;2023-05-28T00:35:50;11.30;;;5.60;;
72117;SDS011;59992;47.490;8.736;2023-05-28T00:38:43;10.90;;;4.90;;
72117;SDS011;59992;47.490;8.736;2023-05-28T00:41:33;10.30;;;5.10;;
72117;SDS011;59992;47.490;8.736;2023-05-28T00:44:23;9.30;;;4.90;;
72117;SDS011;59992;47.490;8.736;2023-05-28T00:47:13;12.70;;;5.10;;
72117;SDS011;59992;47.490;8.736;2023-05-28T00:50:04;10.50;;;5.80;;
72117;SDS011;59992;47.490;8.736;2023-05-28T00:52:56;10.80;;;6.00;;
72117;SDS011;59992;47.490;8.736;2023-05-28T00:55:47;10.40;;;4.80;;
72117;SDS011;59992;47.490;8.736;2023-05-28T00:58:39;12.00;;;4.60;;
72117;SDS011;59992;47.490;8.736;2023-05-28T01:01:30;11.60;;;5.20;;
72117;SDS011;59992;47.490;8.736;2023-05-28T01:04:22;12.30;;;6.00;;
72117;SDS011;59992;47.490;8.736;2023-05-28T01:07:16;11.60;;;5.60;;
72117;SDS011;59992;47.490;8.736;2023-05-28T01:10:07;12.00;;;6.40;;
72117;SDS011;59992;47.490;8.736;2023-05-28T01:12:58;11.20;;;5.40;;
72117;SDS011;59992;47.490;8.736;2023-05-28T01:15:50;10.60;;;5.30;;
72117;SDS011;59992;47.490;8.736;2023-05-28T01:18:41;11.80;;;5.70;;
72117;SDS011;59992;47.490;8.736;2023-05-28T01:21:32;12.20;;;5.30;;
72117;SDS011;59992;47.490;8.736;2023-05-28T01:24:28;8.70;;;5.00;;
72117;SDS011;59992;47.490;8.736;2023-05-28T01:27:19;11.00;;;5.40;;
72117;SDS011;59992;47.490;8.736;2023-05-28T01:30:11;12.00;;;5.80;;
72117;SDS011;59992;47.490;8.736;2023-05-28T01:33:01;14.00;;;5.50;;
72117;SDS011;59992;47.490;8.736;2023-05-28T01:35:52;11.40;;;5.70;;
72117;SDS011;59992;47.490;8.736;2023-05-28T01:38:47;12.90;;;5.60;;
72117;SDS011;59992;47.490;8.736;2023-05-28T01:41:41;10.40;;;6.00;;
72117;SDS011;59992;47.490;8.736;2023-05-28T01:44:32;14.10;;;5.80;;
72117;SDS011;59992;47.490;8.736;2023-05-28T01:47:23;9.70;;;5.30;;
72117;SDS011;59992;47.490;8.736;2023-05-28T01:50:14;9.30;;;4.60;;
72117;SDS011;59992;47.490;8.736;2023-05-28T01:53:04;10.80;;;5.20;;
72117;SDS011;59992;47.490;8.736;2023-05-28T01:55:54;13.00;;;5.60;;
72117;SDS011;59992;47.490;8.736;2023-05-28T01:58:45;12.60;;;6.10;;
72117;SDS011;59992;47.490;8.736;2023-05-28T02:01:35;12.30;;;6.00;;
72117;SDS011;59992;47.490;8.736;2023-05-28T02:04:25;14.90;;;5.70;;
72117;SDS011;59992;47.490;8.736;2023-05-28T02:07:15;14.00;;;6.40;;
72117;SDS011;59992;47.490;8.736;2023-05-28T02:10:06;12.40;;;5.50;;
72117;SDS011;59992;47.490;8.736;2023-05-28T02:12:57;11.60;;;5.50;;
72117;SDS011;59992;47.490;8.736;2023-05-28T02:15:48;15.20;;;6.20;;
72117;SDS011;59992;47.490;8.736;2023-05-28T02:18:38;8.50;;;5.20;;
72117;SDS011;59992;47.490;8.736;2023-05-28T02:21:28;9.50;;;4.50;;
72117;SDS011;59992;47.490;8.736;2023-05-28T02:24:19;12.30;;;5.20;;
72117;SDS011;59992;47.490;8.736;2023-05-28T02:27:09;10.50;;;4.60;;
72117;SDS011;59992;47.490;8.736;2023-05-28T02:30:00;8.00;;;4.30;;
72117;SDS011;59992;47.490;8.736;2023-05-28T02:32:51;8.20;;;4.70;;
72117;SDS011;59992;47.490;8.736;2023-05-28T02:35:42;13.40;;;5.90;;
72117;SDS011;59992;47.490;8.736;2023-05-28T02:38:32;13.10;;;6.50;;
72117;SDS011;59992;47.490;8.736;2023-05-28T02:41:23;9.80;;;4.60;;
72117;SDS011;59992;47.490;8.736;2023-05-28T02:44:14;11.40;;;5.20;;
72117;SDS011;59992;47.490;8.736;2023-05-28T02:47:04;10.30;;;5.80;;
72117;SDS011;59992;47.490;8.736;2023-05-28T02:49:55;11.70;;;5.30;;
72117;SDS011;59992;47.490;8.736;2023-05-28T02:52:45;11.40;;;5.10;;
72117;SDS011;59992;47.490;8.736;2023-05-28T02:55:35;10.30;;;5.20;;
72117;SDS011;59992;47.490;8.736;2023-05-28T02:58:25;10.70;;;5.60;;
72117;SDS011;59992;47.490;8.736;2023-05-28T03:01:17;13.20;;;5.60;;
72117;SDS011;59992;47.490;8.736;2023-05-28T03:04:07;7.80;;;4.90;;
72117;SDS011;59992;47.490;8.736;2023-05-28T03:06:57;11.80;;;5.90;;
72117;SDS011;59992;47.490;8.736;2023-05-28T03:09:47;10.80;;;5.40;;
72117;SDS011;59992;47.490;8.736;2023-05-28T03:12:37;10.10;;;5.00;;
72117;SDS011;59992;47.490;8.736;2023-05-28T03:15:27;9.60;;;4.90;;
72117;SDS011;59992;47.490;8.736;2023-05-28T03:18:18;8.70;;;5.10;;
72117;SDS011;59992;47.490;8.736;2023-05-28T03:21:08;10.50;;;5.80;;
72117;SDS011;59992;47.490;8.736;2023-05-28T03:23:59;10.30;;;4.70;;
72117;SDS011;59992;47.490;8.736;2023-05-28T03:26:49;14.90;;;5.60;;
72117;SDS011;59992;47.490;8.736;2023-05-28T03:29:39;9.60;;;5.20;;
72117;SDS011;59992;47.490;8.736;2023-05-28T03:32:30;11.80;;;5.30;;
72117;SDS011;59992;47.490;8.736;2023-05-28T03:35:20;10.70;;;5.40;;
72117;SDS011;59992;47.490;8.736;2023-05-28T03:38:11;10.70;;;5.80;;
72117;SDS011;59992;47.490;8.736;2023-05-28T03:41:01;10.10;;;5.30;;
72117;SDS011;59992;47.490;8.736;2023-05-28T03:43:52;11.00;;;4.90;;
72117;SDS011;59992;47.490;8.736;2023-05-28T03:46:42;14.70;;;5.80;;
72117;SDS011;59992;47.490;8.736;2023-05-28T03:49:33;9.50;;;4.50;;
72117;SDS011;59992;47.490;8.736;2023-05-28T03:52:23;10.80;;;5.40;;
72117;SDS011;59992;47.490;8.736;2023-05-28T03:55:13;9.60;;;5.00;;
72117;SDS011;59992;47.490;8.736;2023-05-28T03:58:04;9.90;;;5.50;;
72117;SDS011;59992;47.490;8.736;2023-05-28T04:00:54;8.60;;;5.10;;
72117;SDS011;59992;47.490;8.736;2023-05-28T04:03:45;9.30;;;5.50;;
72117;SDS011;59992;47.490;8.736;2023-05-28T04:06:35;10.00;;;5.50;;
72117;SDS011;59992;47.490;8.736;2023-05-28T04:09:25;11.70;;;6.00;;
72117;SDS011;59992;47.490;8.736;2023-05-28T04:12:15;12.20;;;5.70;;
72117;SDS011;59992;47.490;8.736;2023-05-28T04:15:07;11.20;;;5.80;;
72117;SDS011;59992;47.490;8.736;2023-05-28T04:17:58;9.40;;;5.40;;
72117;SDS011;59992;47.490;8.736;2023-05-28T04:20:48;15.40;;;5.60;;
72117;SDS011;59992;47.490;8.736;2023-05-28T04:23:39;11.40;;;5.60;;
72117;SDS011;59992;47.490;8.736;2023-05-28T04:26:29;10.40;;;5.40;;
72117;SDS011;59992;47.490;8.736;2023-05-28T04:29:20;11.10;;;5.60;;
72117;SDS011;59992;47.490;8.736;2023-05-28T04:32:12;9.70;;;5.00;;
72117;SDS011;59992;47.490;8.736;2023-05-28T04:35:03;8.40;;;4.60;;
72117;SDS011;59992;47.490;8.736;2023-05-28T04:37:54;8.50;;;4.30;;
72117;SDS011;59992;47.490;8.736;2023-05-28T04:40:44;9.40;;;4.10;;
72117;SDS011;59992;47.490;8.736;2023-05-28T04:43:34;7.80;;;4.30;;
72117;SDS011;59992;47.490;8.736;2023-05-28T04:46:24;10.70;;;4.50;;
72117;SDS011;59992;47.490;8.736;2023-05-28T04:49:16;6.80;;;3.90;;
72117;SDS011;59992;47.490;8.736;2023-05-28T04:52:07;9.10;;;4.50;;
72117;SDS011;59992;47.490;8.736;2023-05-28T04:54:57;7.00;;;3.80;;
72117;SDS011;59992;47.490;8.736;2023-05-28T04:57:47;7.30;;;4.50;;
72117;SDS011;59992;47.490;8.736;2023-05-28T05:00:37;12.80;;;4.70;;
72117;SDS011;59992;47.490;8.736;2023-05-28T05:03:27;7.90;;;3.90;;
72117;SDS011;59992;47.490;8.736;2023-05-28T05:06:18;9.30;;;4.30;;
72117;SDS011;59992;47.490;8.736;2023-05-28T05:09:09;8.30;;;4.80;;
72117;SDS011;59992;47.490;8.736;2023-05-28T05:11:59;6.70;;;4.00;;
72117;SDS011;59992;47.490;8.736;2023-05-28T05:14:49;9.00;;;4.70;;
72117;SDS011;59992;47.490;8.736;2023-05-28T05:17:40;10.10;;;4.60;;
72117;SDS011;59992;47.490;8.736;2023-05-28T05:23:47;10.20;;;4.70;;
72117;SDS011;59992;47.490;8.736;2023-05-28T05:26:38;8.30;;;4.50;;
72117;SDS011;59992;47.490;8.736;2023-05-28T05:29:28;8.20;;;4.50;;
72117;SDS011;59992;47.490;8.736;2023-05-28T05:32:18;10.50;;;5.20;;
72117;SDS011;59992;47.490;8.736;2023-05-28T05:35:09;8.20;;;4.20;;
72117;SDS011;59992;47.490;8.736;2023-05-28T05:38:00;8.60;;;4.70;;
72117;SDS011;59992;47.490;8.736;2023-05-28T05:40:50;8.30;;;4.90;;
72117;SDS011;59992;47.490;8.736;2023-05-28T05:43:41;9.50;;;4.80;;
72117;SDS011;59992;47.490;8.736;2023-05-28T05:46:32;8.20;;;4.50;;
72117;SDS011;59992;47.490;8.736;2023-05-28T05:49:22;7.40;;;4.40;;
72117;SDS011;59992;47.490;8.736;2023-05-28T05:52:13;9.40;;;4.70;;
72117;SDS011;59992;47.490;8.736;2023-05-28T05:55:03;7.00;;;4.30;;
72117;SDS011;59992;47.490;8.736;2023-05-28T05:57:54;7.00;;;4.50;;
72117;SDS011;59992;47.490;8.736;2023-05-28T06:00:48;9.80;;;4.70;;
72117;SDS011;59992;47.490;8.736;2023-05-28T06:03:39;8.40;;;4.50;;
72117;SDS011;59992;47.490;8.736;2023-05-28T06:06:30;8.90;;;4.90;;
72117;SDS011;59992;47.490;8.736;2023-05-28T06:09:25;8.10;;;4.70;;
72117;SDS011;59992;47.490;8.736;2023-05-28T06:12:20;8.70;;;4.70;;
72117;SDS011;59992;47.490;8.736;2023-05-28T06:15:10;9.70;;;4.50;;
72117;SDS011;59992;47.490;8.736;2023-05-28T06:18:01;7.30;;;4.20;;
72117;SDS011;59992;47.490;8.736;2023-05-28T06:20:52;7.70;;;4.70;;
72117;SDS011;59992;47.490;8.736;2023-05-28T06:23:43;8.50;;;4.30;;
72117;SDS011;59992;47.490;8.736;2023-05-28T06:26:33;7.00;;;4.40;;
72117;SDS011;59992;47.490;8.736;2023-05-28T06:29:23;8.60;;;4.40;;
72117;SDS011;59992;47.490;8.736;2023-05-28T06:32:13;10.10;;;4.30;;
72117;SDS011;59992;47.490;8.736;2023-05-28T06:35:04;11.10;;;4.00;;
72117;SDS011;59992;47.490;8.736;2023-05-28T06:37:55;7.50;;;4.30;;
72117;SDS011;59992;47.490;8.736;2023-05-28T06:40:45;8.30;;;4.20;;
72117;SDS011;59992;47.490;8.736;2023-05-28T06:43:35;8.80;;;4.00;;
72117;SDS011;59992;47.490;8.736;2023-05-28T06:46:26;8.40;;;4.20;;
72117;SDS011;59992;47.490;8.736;2023-05-28T06:49:16;8.80;;;4.10;;
72117;SDS011;59992;47.490;8.736;2023-05-28T06:52:06;9.60;;;4.50;;
72117;SDS011;59992;47.490;8.736;2023-05-28T06:54:56;9.50;;;4.60;;
72117;SDS011;59992;47.490;8.736;2023-05-28T06:57:46;8.40;;;4.30;;
72117;SDS011;59992;47.490;8.736;2023-05-28T07:00:37;8.20;;;4.40;;
72117;SDS011;59992;47.490;8.736;2023-05-28T07:03:27;8.30;;;4.30;;
72117;SDS011;59992;47.490;8.736;2023-05-28T07:06:17;6.90;;;4.00;;
72117;SDS011;59992;47.490;8.736;2023-05-28T07:09:07;8.60;;;4.30;;
72117;SDS011;59992;47.490;8.736;2023-05-28T07:11:58;8.80;;;3.80;;
72117;SDS011;59992;47.490;8.736;2023-05-28T07:14:48;6.90;;;4.00;;
72117;SDS011;59992;47.490;8.736;2023-05-28T07:17:38;7.70;;;3.90;;
72117;SDS011;59992;47.490;8.736;2023-05-28T07:20:28;7.80;;;4.10;;
72117;SDS011;59992;47.490;8.736;2023-05-28T07:23:19;9.40;;;4.70;;
72117;SDS011;59992;47.490;8.736;2023-05-28T07:26:09;8.50;;;4.30;;
72117;SDS011;59992;47.490;8.736;2023-05-28T07:28:59;8.90;;;4.10;;
72117;SDS011;59992;47.490;8.736;2023-05-28T07:31:49;7.20;;;4.10;;
72117;SDS011;59992;47.490;8.736;2023-05-28T07:34:39;10.80;;;4.20;;
72117;SDS011;59992;47.490;8.736;2023-05-28T07:37:30;11.60;;;4.40;;
72117;SDS011;59992;47.490;8.736;2023-05-28T07:40:20;9.90;;;4.20;;
72117;SDS011;59992;47.490;8.736;2023-05-28T07:43:11;8.10;;;4.10;;
72117;SDS011;59992;47.490;8.736;2023-05-28T07:46:01;9.20;;;3.60;;
72117;SDS011;59992;47.490;8.736;2023-05-28T07:48:51;10.60;;;4.30;;
72117;SDS011;59992;47.490;8.736;2023-05-28T07:51:42;10.00;;;4.50;;
72117;SDS011;59992;47.490;8.736;2023-05-28T07:54:32;8.40;;;4.10;;
72117;SDS011;59992;47.490;8.736;2023-05-28T07:57:23;8.50;;;4.30;;
72117;SDS011;59992;47.490;8.736;2023-05-28T08:00:13;10.30;;;4.40;;
72117;SDS011;59992;47.490;8.736;2023-05-28T08:03:04;9.90;;;4.20;;
72117;SDS011;59992;47.490;8.736;2023-05-28T08:05:54;8.50;;;4.70;;
72117;SDS011;59992;47.490;8.736;2023-05-28T08:08:44;8.40;;;4.10;;
72117;SDS011;59992;47.490;8.736;2023-05-28T08:11:35;8.60;;;4.30;;
72117;SDS011;59992;47.490;8.736;2023-05-28T08:14:25;8.90;;;4.00;;
72117;SDS011;59992;47.490;8.736;2023-05-28T08:17:15;9.60;;;4.30;;
72117;SDS011;59992;47.490;8.736;2023-05-28T08:20:06;8.40;;;4.40;;
72117;SDS011;59992;47.490;8.736;2023-05-28T08:22:58;10.30;;;4.10;;
72117;SDS011;59992;47.490;8.736;2023-05-28T08:25:49;8.60;;;3.90;;
72117;SDS011;59992;47.490;8.736;2023-05-28T08:28:39;8.50;;;4.30;;
72117;SDS011;59992;47.490;8.736;2023-05-28T08:31:30;9.30;;;4.40;;
72117;SDS011;59992;47.490;8.736;2023-05-28T08:34:20;8.80;;;4.00;;
72117;SDS011;59992;47.490;8.736;2023-05-28T08:37:12;9.00;;;4.30;;
72117;SDS011;59992;47.490;8.736;2023-05-28T08:40:02;8.80;;;3.80;;
72117;SDS011;59992;47.490;8.736;2023-05-28T08:42:55;7.10;;;3.80;;
72117;SDS011;59992;47.490;8.736;2023-05-28T08:45:46;11.40;;;4.40;;
72117;SDS011;59992;47.490;8.736;2023-05-28T08:48:37;9.70;;;4.20;;
72117;SDS011;59992;47.490;8.736;2023-05-28T08:51:30;7.90;;;4.00;;
72117;SDS011;59992;47.490;8.736;2023-05-28T08:54:24;7.90;;;4.30;;
72117;SDS011;59992;47.490;8.736;2023-05-28T08:57:15;7.70;;;4.30;;
72117;SDS011;59992;47.490;8.736;2023-05-28T09:00:07;10.80;;;4.30;;
72117;SDS011;59992;47.490;8.736;2023-05-28T09:02:59;9.10;;;4.00;;
72117;SDS011;59992;47.490;8.736;2023-05-28T09:05:55;12.40;;;4.20;;
72117;SDS011;59992;47.490;8.736;2023-05-28T09:08:45;9.00;;;4.00;;
72117;SDS011;59992;47.490;8.736;2023-05-28T09:11:35;7.90;;;4.30;;
72117;SDS011;59992;47.490;8.736;2023-05-28T09:14:25;9.30;;;4.50;;
72117;SDS011;59992;47.490;8.736;2023-05-28T09:17:16;10.10;;;4.30;;
72117;SDS011;59992;47.490;8.736;2023-05-28T09:20:19;9.90;;;4.30;;
72117;SDS011;59992;47.490;8.736;2023-05-28T09:23:10;10.00;;;4.20;;
72117;SDS011;59992;47.490;8.736;2023-05-28T09:26:04;7.70;;;3.40;;
72117;SDS011;59992;47.490;8.736;2023-05-28T09:28:57;15.00;;;4.50;;
72117;SDS011;59992;47.490;8.736;2023-05-28T09:31:49;10.60;;;4.40;;
72117;SDS011;59992;47.490;8.736;2023-05-28T09:34:44;9.70;;;4.10;;
72117;SDS011;59992;47.490;8.736;2023-05-28T09:37:35;11.20;;;4.10;;
72117;SDS011;59992;47.490;8.736;2023-05-28T09:40:25;9.00;;;4.30;;
72117;SDS011;59992;47.490;8.736;2023-05-28T09:43:16;9.30;;;4.60;;
72117;SDS011;59992;47.490;8.736;2023-05-28T09:46:07;8.80;;;4.50;;
72117;SDS011;59992;47.490;8.736;2023-05-28T09:48:57;10.60;;;4.70;;
72117;SDS011;59992;47.490;8.736;2023-05-28T09:51:48;10.80;;;4.80;;
72117;SDS011;59992;47.490;8.736;2023-05-28T09:54:44;11.00;;;4.90;;
72117;SDS011;59992;47.490;8.736;2023-05-28T09:57:39;7.70;;;3.80;;
72117;SDS011;59992;47.490;8.736;2023-05-28T10:00:34;12.60;;;4.80;;
72117;SDS011;59992;47.490;8.736;2023-05-28T10:03:32;8.00;;;4.70;;
72117;SDS011;59992;47.490;8.736;2023-05-28T10:06:25;9.20;;;4.40;;
72117;SDS011;59992;47.490;8.736;2023-05-28T10:09:17;9.10;;;4.40;;
72117;SDS011;59992;47.490;8.736;2023-05-28T10:12:23;9.10;;;4.10;;
72117;SDS011;59992;47.490;8.736;2023-05-28T10:15:16;11.40;;;4.70;;
72117;SDS011;59992;47.490;8.736;2023-05-28T10:18:07;9.40;;;4.30;;
72117;SDS011;59992;47.490;8.736;2023-05-28T10:20:59;10.30;;;4.50;;
72117;SDS011;59992;47.490;8.736;2023-05-28T10:23:50;9.30;;;4.20;;
72117;SDS011;59992;47.490;8.736;2023-05-28T10:26:41;9.40;;;4.10;;
72117;SDS011;59992;47.490;8.736;2023-05-28T10:29:38;11.40;;;4.30;;
72117;SDS011;59992;47.490;8.736;2023-05-28T10:32:28;10.20;;;4.30;;
72117;SDS011;59992;47.490;8.736;2023-05-28T10:35:25;11.00;;;4.30;;
72117;SDS011;59992;47.490;8.736;2023-05-28T10:38:16;11.80;;;4.50;;
72117;SDS011;59992;47.490;8.736;2023-05-28T10:41:06;9.60;;;4.40;;
72117;SDS011;59992;47.490;8.736;2023-05-28T10:43:58;9.70;;;4.40;;
72117;SDS011;59992;47.490;8.736;2023-05-28T10:46:55;9.20;;;4.40;;
72117;SDS011;59992;47.490;8.736;2023-05-28T10:49:58;11.00;;;4.50;;
72117;SDS011;59992;47.490;8.736;2023-05-28T10:53:04;10.20;;;3.00;;
72117;SDS011;59992;47.490;8.736;2023-05-28T10:55:56;12.80;;;4.50;;
72117;SDS011;59992;47.490;8.736;2023-05-28T10:58:46;9.20;;;4.40;;
72117;SDS011;59992;47.490;8.736;2023-05-28T11:01:36;10.00;;;4.80;;
72117;SDS011;59992;47.490;8.736;2023-05-28T11:04:26;9.20;;;4.40;;
72117;SDS011;59992;47.490;8.736;2023-05-28T11:07:23;13.90;;;4.50;;
72117;SDS011;59992;47.490;8.736;2023-05-28T11:10:18;10.00;;;4.30;;
72117;SDS011;59992;47.490;8.736;2023-05-28T11:13:10;9.80;;;4.70;;
72117;SDS011;59992;47.490;8.736;2023-05-28T11:16:07;10.40;;;5.00;;
72117;SDS011;59992;47.490;8.736;2023-05-28T11:19:00;11.10;;;4.80;;
72117;SDS011;59992;47.490;8.736;2023-05-28T11:21:51;9.90;;;4.50;;
72117;SDS011;59992;47.490;8.736;2023-05-28T11:24:53;10.80;;;4.90;;
72117;SDS011;59992;47.490;8.736;2023-05-28T11:27:47;9.10;;;4.60;;
72117;SDS011;59992;47.490;8.736;2023-05-28T11:30:37;9.20;;;4.10;;
72117;SDS011;59992;47.490;8.736;2023-05-28T11:33:28;9.30;;;4.50;;
72117;SDS011;59992;47.490;8.736;2023-05-28T11:36:20;9.80;;;4.60;;
72117;SDS011;59992;47.490;8.736;2023-05-28T11:39:10;8.60;;;3.90;;
72117;SDS011;59992;47.490;8.736;2023-05-28T11:42:03;10.20;;;4.30;;
72117;SDS011;59992;47.490;8.736;2023-05-28T11:44:55;8.20;;;3.80;;
72117;SDS011;59992;47.490;8.736;2023-05-28T11:47:47;8.70;;;4.40;;
72117;SDS011;59992;47.490;8.736;2023-05-28T11:50:37;7.90;;;3.90;;
72117;SDS011;59992;47.490;8.736;2023-05-28T11:53:41;8.00;;;4.10;;
72117;SDS011;59992;47.490;8.736;2023-05-28T11:56:31;10.00;;;3.90;;
72117;SDS011;59992;47.490;8.736;2023-05-28T11:59:23;9.00;;;3.80;;
72117;SDS011;59992;47.490;8.736;2023-05-28T12:02:19;9.30;;;4.10;;
72117;SDS011;59992;47.490;8.736;2023-05-28T12:05:20;9.30;;;4.10;;
72117;SDS011;59992;47.490;8.736;2023-05-28T12:08:11;10.70;;;4.10;;
72117;SDS011;59992;47.490;8.736;2023-05-28T12:11:07;10.00;;;4.10;;
72117;SDS011;59992;47.490;8.736;2023-05-28T12:13:57;8.70;;;4.40;;
72117;SDS011;59992;47.490;8.736;2023-05-28T12:17:06;9.90;;;4.10;;
72117;SDS011;59992;47.490;8.736;2023-05-28T12:20:00;7.90;;;3.80;;
72117;SDS011;59992;47.490;8.736;2023-05-28T12:23:00;9.50;;;3.90;;
72117;SDS011;59992;47.490;8.736;2023-05-28T12:25:56;7.30;;;4.30;;
72117;SDS011;59992;47.490;8.736;2023-05-28T12:28:46;8.80;;;4.30;;
72117;SDS011;59992;47.490;8.736;2023-05-28T12:31:37;11.10;;;4.50;;
72117;SDS011;59992;47.490;8.736;2023-05-28T12:34:27;9.90;;;4.40;;
72117;SDS011;59992;47.490;8.736;2023-05-28T12:37:19;8.70;;;4.20;;
72117;SDS011;59992;47.490;8.736;2023-05-28T12:40:10;7.30;;;3.70;;
72117;SDS011;59992;47.490;8.736;2023-05-28T12:43:01;7.20;;;4.20;;
72117;SDS011;59992;47.490;8.736;2023-05-28T12:45:51;8.10;;;3.70;;
72117;SDS011;59992;47.490;8.736;2023-05-28T12:48:41;7.40;;;4.00;;
72117;SDS011;59992;47.490;8.736;2023-05-28T12:51:32;6.10;;;3.80;;
72117;SDS011;59992;47.490;8.736;2023-05-28T12:54:23;6.70;;;3.50;;
72117;SDS011;59992;47.490;8.736;2023-05-28T12:57:13;8.10;;;4.10;;
72117;SDS011;59992;47.490;8.736;2023-05-28T13:00:04;8.80;;;4.00;;
72117;SDS011;59992;47.490;8.736;2023-05-28T13:02:58;10.00;;;4.10;;
72117;SDS011;59992;47.490;8.736;2023-05-28T13:06:08;10.00;;;3.90;;
72117;SDS011;59992;47.490;8.736;2023-05-28T13:08:59;8.60;;;3.90;;
72117;SDS011;59992;47.490;8.736;2023-05-28T13:11:50;7.60;;;3.90;;
72117;SDS011;59992;47.490;8.736;2023-05-28T13:14:41;7.30;;;3.70;;
72117;SDS011;59992;47.490;8.736;2023-05-28T13:17:31;8.80;;;3.80;;
72117;SDS011;59992;47.490;8.736;2023-05-28T13:20:22;8.90;;;4.10;;
72117;SDS011;59992;47.490;8.736;2023-05-28T13:23:12;6.70;;;3.70;;
72117;SDS011;59992;47.490;8.736;2023-05-28T13:26:02;8.00;;;4.00;;
72117;SDS011;59992;47.490;8.736;2023-05-28T13:28:53;11.30;;;3.90;;
72117;SDS011;59992;47.490;8.736;2023-05-28T13:31:44;7.60;;;3.60;;
72117;SDS011;59992;47.490;8.736;2023-05-28T13:34:34;6.70;;;3.50;;
72117;SDS011;59992;47.490;8.736;2023-05-28T13:37:26;8.70;;;3.50;;
72117;SDS011;59992;47.490;8.736;2023-05-28T13:40:18;8.10;;;3.70;;
72117;SDS011;59992;47.490;8.736;2023-05-28T13:43:09;9.30;;;4.00;;
72117;SDS011;59992;47.490;8.736;2023-05-28T13:46:01;7.40;;;3.50;;
72117;SDS011;59992;47.490;8.736;2023-05-28T13:48:51;6.40;;;3.30;;
72117;SDS011;59992;47.490;8.736;2023-05-28T13:51:43;8.40;;;3.20;;
72117;SDS011;59992;47.490;8.736;2023-05-28T13:54:33;7.40;;;3.80;;
72117;SDS011;59992;47.490;8.736;2023-05-28T13:57:23;7.40;;;3.50;;
72117;SDS011;59992;47.490;8.736;2023-05-28T14:00:14;6.50;;;3.60;;
72117;SDS011;59992;47.490;8.736;2023-05-28T14:03:06;7.70;;;3.50;;
72117;SDS011;59992;47.490;8.736;2023-05-28T14:06:01;8.20;;;3.40;;
72117;SDS011;59992;47.490;8.736;2023-05-28T14:08:51;7.80;;;3.40;;
72117;SDS011;59992;47.490;8.736;2023-05-28T14:11:42;8.00;;;3.40;;
72117;SDS011;59992;47.490;8.736;2023-05-28T14:14:33;6.50;;;3.70;;
72117;SDS011;59992;47.490;8.736;2023-05-28T14:17:23;7.00;;;3.20;;
72117;SDS011;59992;47.490;8.736;2023-05-28T14:20:14;5.90;;;3.10;;
72117;SDS011;59992;47.490;8.736;2023-05-28T14:23:05;5.80;;;3.00;;
72117;SDS011;59992;47.490;8.736;2023-05-28T14:25:55;7.60;;;3.10;;
72117;SDS011;59992;47.490;8.736;2023-05-28T14:28:46;5.30;;;2.80;;
72117;SDS011;59992;47.490;8.736;2023-05-28T14:31:36;6.60;;;2.80;;
72117;SDS011;59992;47.490;8.736;2023-05-28T14:34:28;7.00;;;3.20;;
72117;SDS011;59992;47.490;8.736;2023-05-28T14:37:18;9.90;;;3.50;;
72117;SDS011;59992;47.490;8.736;2023-05-28T14:40:09;5.90;;;2.70;;
72117;SDS011;59992;47.490;8.736;2023-05-28T14:42:59;8.30;;;3.40;;
72117;SDS011;59992;47.490;8.736;2023-05-28T14:45:50;7.20;;;3.00;;
72117;SDS011;59992;47.490;8.736;2023-05-28T14:48:40;11.60;;;3.40;;
72117;SDS011;59992;47.490;8.736;2023-05-28T14:51:30;8.70;;;3.10;;
72117;SDS011;59992;47.490;8.736;2023-05-28T14:54:21;5.70;;;3.00;;
72117;SDS011;59992;47.490;8.736;2023-05-28T14:57:17;7.00;;;3.20;;
72117;SDS011;59992;47.490;8.736;2023-05-28T15:00:08;6.60;;;2.80;;
72117;SDS011;59992;47.490;8.736;2023-05-28T15:02:59;6.60;;;2.70;;
72117;SDS011;59992;47.490;8.736;2023-05-28T15:05:49;7.10;;;3.00;;
72117;SDS011;59992;47.490;8.736;2023-05-28T15:08:39;6.50;;;2.80;;
72117;SDS011;59992;47.490;8.736;2023-05-28T15:11:29;10.00;;;3.30;;
72117;SDS011;59992;47.490;8.736;2023-05-28T15:14:20;5.60;;;2.90;;
72117;SDS011;59992;47.490;8.736;2023-05-28T15:17:10;6.00;;;2.90;;
72117;SDS011;59992;47.490;8.736;2023-05-28T15:20:00;9.30;;;2.80;;
72117;SDS011;59992;47.490;8.736;2023-05-28T15:22:51;6.20;;;2.90;;
72117;SDS011;59992;47.490;8.736;2023-05-28T15:25:41;8.30;;;3.00;;
72117;SDS011;59992;47.490;8.736;2023-05-28T15:28:33;7.50;;;2.80;;
72117;SDS011;59992;47.490;8.736;2023-05-28T15:31:23;6.60;;;2.70;;
72117;SDS011;59992;47.490;8.736;2023-05-28T15:34:16;5.70;;;2.90;;
72117;SDS011;59992;47.490;8.736;2023-05-28T15:37:06;8.60;;;3.30;;
72117;SDS011;59992;47.490;8.736;2023-05-28T15:39:58;5.40;;;2.80;;
72117;SDS011;59992;47.490;8.736;2023-05-28T15:42:48;7.20;;;3.20;;
72117;SDS011;59992;47.490;8.736;2023-05-28T15:45:41;5.70;;;3.00;;
72117;SDS011;59992;47.490;8.736;2023-05-28T15:48:31;5.60;;;2.60;;
72117;SDS011;59992;47.490;8.736;2023-05-28T15:51:21;7.00;;;2.80;;
72117;SDS011;59992;47.490;8.736;2023-05-28T15:54:12;6.00;;;2.60;;
72117;SDS011;59992;47.490;8.736;2023-05-28T15:57:02;5.10;;;2.70;;
72117;SDS011;59992;47.490;8.736;2023-05-28T15:59:53;7.10;;;2.80;;
72117;SDS011;59992;47.490;8.736;2023-05-28T16:02:44;7.00;;;2.70;;
72117;SDS011;59992;47.490;8.736;2023-05-28T16:05:36;6.00;;;3.00;;
72117;SDS011;59992;47.490;8.736;2023-05-28T16:08:27;7.20;;;2.90;;
72117;SDS011;59992;47.490;8.736;2023-05-28T16:11:17;7.60;;;3.00;;
72117;SDS011;59992;47.490;8.736;2023-05-28T16:14:11;5.50;;;2.50;;
72117;SDS011;59992;47.490;8.736;2023-05-28T16:17:04;7.40;;;2.80;;
72117;SDS011;59992;47.490;8.736;2023-05-28T16:19:55;7.70;;;2.80;;
72117;SDS011;59992;47.490;8.736;2023-05-28T16:22:46;6.60;;;2.70;;
72117;SDS011;59992;47.490;8.736;2023-05-28T16:25:36;6.60;;;2.70;;
72117;SDS011;59992;47.490;8.736;2023-05-28T16:28:27;5.70;;;2.90;;
72117;SDS011;59992;47.490;8.736;2023-05-28T16:31:18;7.50;;;2.70;;
72117;SDS011;59992;47.490;8.736;2023-05-28T16:34:10;9.10;;;2.70;;
72117;SDS011;59992;47.490;8.736;2023-05-28T16:37:01;6.10;;;2.70;;
72117;SDS011;59992;47.490;8.736;2023-05-28T16:39:54;6.00;;;2.80;;
72117;SDS011;59992;47.490;8.736;2023-05-28T16:42:45;9.10;;;2.90;;
72117;SDS011;59992;47.490;8.736;2023-05-28T16:45:36;6.70;;;2.50;;
72117;SDS011;59992;47.490;8.736;2023-05-28T16:48:27;6.40;;;2.50;;
72117;SDS011;59992;47.490;8.736;2023-05-28T16:51:18;8.70;;;3.80;;
72117;SDS011;59992;47.490;8.736;2023-05-28T16:54:09;8.00;;;3.30;;
72117;SDS011;59992;47.490;8.736;2023-05-28T16:56:59;7.50;;;3.20;;
72117;SDS011;59992;47.490;8.736;2023-05-28T16:59:51;9.00;;;3.70;;
72117;SDS011;59992;47.490;8.736;2023-05-28T17:02:41;8.80;;;3.00;;
72117;SDS011;59992;47.490;8.736;2023-05-28T17:05:31;6.20;;;2.60;;
72117;SDS011;59992;47.490;8.736;2023-05-28T17:08:21;8.30;;;3.00;;
72117;SDS011;59992;47.490;8.736;2023-05-28T17:11:12;5.60;;;2.80;;